Route Details

Aircraft Information
Group: North America Fleet
Types: B738, B752, B762, B763
Route Data
Distance: 316nm
Duration: 1h 35m
Origin METAR: KONT 072353Z 29005KT 10SM FEW250 20/M03 A3020 RMK AO2 SLP220 T02001033 10200 20167 56012
Dest. METAR: KSFO 072256Z 05004KT 10SM FEW160 BKN200 14/08 A3032 RMK AO2 SLP268 T01440083
Freight Data
(for Feb 8, 2023)
Load Factor:
30%
Manifested Cargo: 30,934lbs
Financial History
Total Freight: 383,774lbs
Average Load: 0lbs/flt
Fuel Used: 39,383lbs
Avg. Fuel Used: 0lbs/flt
Fuel Expense: $20,965
Avg. Fuel Expense: $0
Avg. Fuel Cost: $0/lbs
Total Gross Income: $944,084
Pilot Pay: $1,733
Total Expenses: $188,592
Total Revenue: $731,324
Average Revenue: $0

Capitol Logistics 447




KONT
Ontario International Airport
Ontario, California
KSFO
San Francisco International Airport
San Francisco, California

Activity Log

Date Flight Route Aircraft Duration
12/05/2022 CPX447 SNSHN5 COREZ DCT MAKRS DCT SERFR SERFR4 B752 1h 16m
10/03/2022 CPX447 SNSHN5 COREZ DCT MAKRS DCT SERFR SERFR4 B763 1h 07m
09/21/2022 CPX447 SNSHN5 COREZ DCT MAKRS DCT SERFR SERFR4 B763 1h 01m
08/24/2022 CPX447 SNSHN5 COREZ DCT MAKRS DCT SERFR SERFR4 B738 1h 12m
08/12/2022 CPX447 SNSHN5 COREZ DCT MAKRS DCT SERFR SERFR4 B738 1h 13m
07/14/2022 CPX447 SNSHN5 COREZ DCT MAKRS DCT SERFR SERFR4 B738 1h 12m
07/13/2022 CPX447 SNSHN5 COREZ MAKRS SERFR SERFR4 B738 1h 01m